Wind from 298 at 6 knots gusting 12

Air temperature 15.6° C
Dewpoint 10.3° C

Last reported at 2014-Apr-17 17:10 UTC.
Time now 2014-Apr-17 18:29 UTC

Location: N 45°57' W 001°22'.
View on Google Maps.

See reports from other nearby stations

Tides Stations Pressure Air Temp Water Temp Dewpoint Dewpoint depression Visibility Wind Speed Wind Dir Waves Ship positions

  
sailing weather and tide predictions

DW7262 La Rochelle FR weather

date/time (UTC)wind fromknots sea level pressurealtimeterstation pressurevisibilityair tempwater tempwave heightnotes
2014-Apr-17 17:10 298 6 gusting 12 15.6
2014-Apr-17 16:37 323 6 gusting 12 16.7
2014-Apr-17 16:27 298 6 gusting 12 16.7
2014-Apr-17 16:17 298 6 gusting 10 16.7
2014-Apr-17 16:07 308 6 gusting 11 16.7
2014-Apr-17 15:46 316 7 gusting 14 16.1
2014-Apr-17 14:47 238 4 gusting 8 18.3
2014-Apr-17 14:24 023 4 gusting 8 20.6
2014-Apr-17 14:03 020 5 gusting 10 20.6
2014-Apr-17 13:05 040 5 gusting 10 19.4
2014-Apr-17 12:55 026 6 gusting 11 19.4
2014-Apr-17 12:45 345 6 gusting 11 19.4
2014-Apr-17 12:35 019 5 gusting 12 18.9
2014-Apr-17 11:49 033 6 gusting 11 17.8
2014-Apr-17 11:39 047 6 gusting 12 17.8
2014-Apr-17 11:28 034 6 gusting 12 17.8
2014-Apr-17 11:19 022 6 gusting 11 17.2
2014-Apr-17 11:08 024 6 gusting 13 16.7
2014-Apr-17 10:58 019 6 gusting 13 16.7
2014-Apr-17 10:48 026 6 gusting 13 16.1
2014-Apr-17 10:38 048 6 gusting 13 16.1
2014-Apr-17 10:28 018 5 gusting 11 15.6
2014-Apr-17 09:54 050 5 gusting 10 15.0
2014-Apr-17 09:44 036 6 gusting 10 14.4
2014-Apr-17 09:22 019 6 gusting 10 13.3
2014-Apr-17 09:00 056 5 gusting 8 12.8
2014-Apr-17 08:51 034 4 gusting 8 12.8
2014-Apr-17 08:41 029 4 gusting 7 12.8
2014-Apr-17 08:19 023 4 gusting 8 12.2
2014-Apr-17 07:56 018 4 gusting 9 11.7
2014-Apr-17 07:22 059 3 gusting 7 11.1
2014-Apr-17 07:12 055 3 gusting 6 10.6
2014-Apr-17 07:02 036 3 gusting 6 10.6
2014-Apr-17 06:40 040 1 gusting 3 9.4
2014-Apr-17 06:30 030 1 gusting 3 8.9
2014-Apr-17 06:20 023 0 gusting 3 8.9
2014-Apr-17 06:11 064 0 gusting 3 8.3
2014-Apr-17 06:01 032 1 gusting 3 7.8
2014-Apr-17 05:51 023 0 gusting 0 7.8
2014-Apr-16 16:46 048 6 gusting 13 20.6
2014-Apr-16 16:36 075 7 gusting 13 20.6
2014-Apr-16 16:02 060 6 gusting 12 21.1
2014-Apr-16 15:41 089 7 gusting 14 21.1
2014-Apr-16 15:31 074 6 gusting 17 21.1
2014-Apr-16 15:21 082 7 gusting 17 20.6
2014-Apr-16 14:11 088 7 gusting 15 20.6
2014-Apr-16 14:01 047 7 gusting 13 20.6
2014-Apr-16 13:51 057 7 gusting 14 20.6
2014-Apr-16 13:41 077 6 gusting 14 20.6
2014-Apr-16 13:19 028 7 gusting 15 20.0
2014-Apr-16 13:10 032 6 gusting 14 20.0
2014-Apr-16 12:59 066 6 gusting 13 20.0
2014-Apr-16 12:50 043 6 gusting 15 19.4
2014-Apr-16 12:40 050 8 gusting 15 19.4
2014-Apr-16 12:30 091 8 gusting 18 18.9
2014-Apr-16 12:21 081 9 gusting 18 18.9
2014-Apr-16 11:58 082 7 gusting 14 18.3
2014-Apr-16 11:13 084 8 gusting 15 17.2
2014-Apr-16 11:03 053 9 gusting 15 16.7
2014-Apr-16 10:52 063 6 gusting 14 16.7
2014-Apr-16 10:43 065 8 gusting 17 16.1
2014-Apr-16 10:21 082 9 gusting 15 15.0
2014-Apr-16 10:11 072 8 gusting 15 14.4
2014-Apr-16 09:49 064 8 gusting 16 13.9
2014-Apr-16 09:40 065 8 gusting 16 13.9
2014-Apr-16 09:29 073 7 gusting 13 13.3
2014-Apr-16 09:19 071 8 gusting 15 12.8
2014-Apr-16 08:45 071 9 gusting 17 11.7
2014-Apr-16 08:22 069 6 gusting 14 11.1
2014-Apr-16 07:48 056 7 gusting 15 10.0
2014-Apr-16 07:38 085 6 gusting 13 9.4
2014-Apr-16 07:28 069 6 gusting 11 9.4
2014-Apr-16 07:06 105 6 gusting 14 8.9
2014-Apr-16 06:44 073 7 gusting 14 8.3
2014-Apr-16 06:34 050 6 gusting 10 8.3
2014-Apr-16 06:00 055 6 gusting 10 7.2
2014-Apr-16 05:50 063 6 gusting 11 7.2
2014-Apr-16 05:28 068 5 gusting 9 6.7
2014-Apr-16 05:18 072 5 gusting 10 6.7
2014-Apr-16 05:08 091 5 gusting 11 6.7
2014-Apr-16 04:46 063 6 gusting 11 7.2
2014-Apr-16 04:24 046 4 gusting 11 7.2
2014-Apr-16 04:14 050 5 gusting 11 7.2
2014-Apr-16 03:52 047 7 gusting 13 7.8
2014-Apr-16 03:42 079 6 gusting 11 7.8
2014-Apr-16 03:20 090 6 gusting 13 7.8
2014-Apr-16 03:10 060 5 gusting 11 7.8
2014-Apr-16 02:59 060 6 gusting 13 8.3
2014-Apr-16 02:37 065 6 gusting 13 8.3
2014-Apr-16 02:27 057 6 gusting 12 8.3
2014-Apr-16 01:41 054 6 gusting 12 9.4
2014-Apr-16 01:19 044 6 gusting 13 9.4
2014-Apr-16 01:09 094 7 gusting 13 9.4
2014-Apr-16 00:59 059 6 gusting 13 10.0
2014-Apr-16 00:49 067 6 gusting 13 10.0
2014-Apr-16 00:27 077 6 gusting 12 10.0
2014-Apr-16 00:17 082 6 gusting 14 10.0
2014-Apr-16 00:06 073 7 gusting 14 10.0
2014-Apr-15 23:56 053 6 gusting 13 10.6
2014-Apr-15 23:46 054 6 gusting 15 10.6
2014-Apr-15 23:36 057 6 gusting 15 10.6
2014-Apr-15 23:13 055 6 gusting 14 10.6
2014-Apr-15 23:03 068 6 gusting 12 11.1
2014-Apr-15 22:52 063 6 gusting 14 11.1
2014-Apr-15 22:42 068 7 gusting 14 11.1
2014-Apr-15 22:33 063 8 gusting 15 11.7
2014-Apr-15 21:59 063 8 gusting 18 12.2
2014-Apr-15 21:37 065 7 gusting 17 12.2
2014-Apr-15 20:52 072 9 gusting 19 13.3
2014-Apr-15 19:52 105 6 gusting 16 13.9
2014-Apr-15 19:43 081 7 gusting 15 13.9
2014-Apr-15 19:33 079 6 gusting 15 13.9
2014-Apr-15 19:11 068 6 gusting 16 14.4
2014-Apr-15 18:49 128 7 gusting 15 15.0
2014-Apr-15 18:39 041 8 gusting 15 15.0
2014-Apr-15 18:30 030 6 gusting 14 15.6
2014-Apr-15 18:08 056 8 gusting 17 16.1